Time;durP1;ratioP1;P1;durP2;ratioP2;P2;SDS_P1;SDS_P2;PMS_P1;PMS_P2;Temp;Humidity;BMP_temperature;BMP_pressure;BME280_temperature;BME280_humidity;BME280_pressure;Samples;Min_cycle;Max_cycle;Signal;HPM_P1;HPM_P2
2022/03/30 00:02:18;;;;;;;49.15;30.85;;;10.90;99.90;;;;;;5047028;28;20056;-85
2022/03/30 00:04:43;;;;;;;47.40;28.80;;;11.00;99.90;;;;;;5032586;28;20037;-85
2022/03/30 00:07:10;;;;;;;50.25;29.63;;;11.20;99.90;;;;;;5032238;28;20036;-85
2022/03/30 00:09:36;;;;;;;47.35;26.88;;;11.10;99.90;;;;;;5032759;28;20018;-84
2022/03/30 00:12:01;;;;;;;50.60;28.65;;;11.10;99.90;;;;;;5035764;28;20060;-84
2022/03/30 00:14:27;;;;;;;52.45;30.08;;;10.90;99.90;;;;;;5036640;28;20079;-84
2022/03/30 00:16:53;;;;;;;59.85;31.05;;;10.70;99.90;;;;;;5036657;28;20033;-84
2022/03/30 00:19:19;;;;;;;53.67;32.15;;;10.50;99.90;;;;;;5036306;28;20394;-82
2022/03/30 00:21:45;;;;;;;63.95;30.73;;;10.50;99.90;;;;;;5041499;28;20032;-84
2022/03/30 00:24:11;;;;;;;64.35;31.90;;;10.50;99.90;;;;;;5054885;28;20029;-85
2022/03/30 00:26:37;;;;;;;54.53;28.70;;;10.60;99.90;;;;;;5056175;28;20079;-85
2022/03/30 00:29:05;;;;;;;56.72;31.25;;;10.60;99.90;;;;;;5056196;28;20052;-84
2022/03/30 00:31:32;;;;;;;56.20;30.15;;;10.50;99.90;;;;;;5056445;28;20053;-84
2022/03/30 00:33:57;;;;;;;50.08;28.35;;;10.60;99.90;;;;;;5055320;28;20096;-85
2022/03/30 00:36:23;;;;;;;55.30;28.90;;;10.50;99.90;;;;;;5040464;28;20051;-84
2022/03/30 00:38:49;;;;;;;59.92;29.95;;;10.80;99.90;;;;;;5040489;28;20041;-85
2022/03/30 00:41:15;;;;;;;57.28;28.50;;;10.80;99.90;;;;;;5039269;28;20026;-82
2022/03/30 00:43:41;;;;;;;56.22;29.80;;;11.00;99.90;;;;;;5037375;28;20021;-83
2022/03/30 00:46:10;;;;;;;52.67;31.15;;;11.10;99.90;;;;;;5036003;28;20021;-85
2022/03/30 00:48:36;;;;;;;62.88;30.80;;;10.80;99.90;;;;;;5054824;28;20044;-84
2022/03/30 00:51:02;;;;;;;56.83;28.95;;;10.80;99.90;;;;;;5056545;28;20021;-80
2022/03/30 00:53:28;;;;;;;67.63;30.77;;;10.90;99.90;;;;;;5055611;28;20458;-82
2022/03/30 00:55:54;;;;;;;65.13;31.33;;;10.80;99.90;;;;;;5059267;28;20040;-86
2022/03/30 00:58:25;;;;;;;48.90;29.33;;;10.80;99.90;;;;;;5058272;28;20044;-84
2022/03/30 01:00:51;;;;;;;62.88;29.38;;;10.70;99.90;;;;;;5057995;28;20036;-79
2022/03/30 01:03:17;;;;;;;53.83;29.42;;;10.90;99.90;;;;;;5044944;28;20386;-84
2022/03/30 01:05:43;;;;;;;51.92;27.75;;;10.80;99.90;;;;;;5038475;28;20032;-83
2022/03/30 01:08:09;;;;;;;53.40;27.27;;;10.90;99.90;;;;;;5039592;28;20083;-85
2022/03/30 01:10:34;;;;;;;50.03;27.92;;;10.80;99.90;;;;;;5038078;28;20021;-85
2022/03/30 01:13:02;;;;;;;45.63;26.83;;;11.00;99.90;;;;;;5052247;28;20036;-85
2022/03/30 01:15:28;;;;;;;53.65;26.42;;;10.90;99.90;;;;;;5038108;28;20501;-84
2022/03/30 01:17:53;;;;;;;54.63;26.90;;;10.90;99.90;;;;;;5037968;28;20030;-86
2022/03/30 01:20:21;;;;;;;50.03;26.52;;;10.90;99.90;;;;;;5037720;28;20030;-84
2022/03/30 01:22:47;;;;;;;55.70;26.80;;;10.60;99.90;;;;;;5037174;28;20037;-86
2022/03/30 01:25:13;;;;;;;55.90;27.85;;;10.10;99.90;;;;;;5036661;28;20037;-85
2022/03/30 01:27:39;;;;;;;50.63;27.77;;;10.30;99.90;;;;;;5036421;28;20384;-85
2022/03/30 01:33:00;;;;;;;49.22;24.05;;;10.20;99.90;;;;;;5034256;28;20029;-85
2022/03/30 01:35:26;;;;;;;45.30;24.73;;;10.30;99.90;;;;;;5034388;28;20033;-81
2022/03/30 01:37:52;;;;;;;49.45;25.35;;;10.20;99.90;;;;;;5035338;28;20045;-86
2022/03/30 01:40:18;;;;;;;45.78;25.20;;;10.10;99.90;;;;;;5035861;28;20037;-86
2022/03/30 01:42:44;;;;;;;52.28;25.92;;;10.40;99.90;;;;;;5036496;28;20036;-84
2022/03/30 01:45:12;;;;;;;45.45;24.23;;;10.30;99.90;;;;;;5036211;28;20025;-85
2022/03/30 01:47:41;;;;;;;55.03;26.50;;;10.20;99.90;;;;;;5047703;28;20052;-85
2022/03/30 01:50:09;;;;;;;58.03;28.70;;;10.40;99.90;;;;;;5057070;28;20473;-84
2022/03/30 01:52:36;;;;;;;68.40;29.35;;;10.50;99.90;;;;;;5057669;28;20043;-85
2022/03/30 01:55:02;;;;;;;64.10;31.60;;;10.50;99.90;;;;;;5059499;28;20043;-83
2022/03/30 01:57:28;;;;;;;64.85;30.98;;;10.50;99.90;;;;;;5057209;28;20086;-85
2022/03/30 01:59:54;;;;;;;75.32;33.65;;;10.30;99.90;;;;;;5056812;28;20258;-86
2022/03/30 02:02:20;;;;;;;66.90;34.00;;;10.30;99.90;;;;;;5057218;28;20488;-86
2022/03/30 02:04:45;;;;;;;59.17;29.30;;;10.30;99.90;;;;;;5056386;28;20039;-84
2022/03/30 02:07:11;;;;;;;55.10;27.45;;;10.10;99.90;;;;;;5057816;28;20049;-85
2022/03/30 02:09:38;;;;;;;62.15;28.45;;;10.20;99.90;;;;;;5058094;28;20029;-85
2022/03/30 02:12:05;;;;;;;68.97;30.00;;;10.30;99.90;;;;;;5056957;28;20021;-85
2022/03/30 02:14:31;;;;;;;58.03;27.23;;;10.30;99.90;;;;;;5057184;28;20079;-85
2022/03/30 02:16:57;;;;;;;51.17;26.40;;;10.10;99.90;;;;;;5057041;28;20032;-84
2022/03/30 02:19:23;;;;;;;55.47;25.70;;;10.10;99.90;;;;;;5057922;28;20048;-86
2022/03/30 02:21:49;;;;;;;64.32;25.92;;;10.10;99.90;;;;;;5056018;28;20036;-85
2022/03/30 02:24:15;;;;;;;55.92;26.23;;;10.00;99.90;;;;;;5056684;28;20063;-85
2022/03/30 02:26:47;;;;;;;59.33;24.77;;;10.20;99.90;;;;;;5057682;28;20029;-85
2022/03/30 02:29:13;;;;;;;55.75;23.45;;;10.20;99.90;;;;;;5056714;28;20025;-85
2022/03/30 02:31:43;;;;;;;43.03;23.25;;;10.00;99.90;;;;;;5055748;28;20421;-85
2022/03/30 02:34:10;;;;;;;47.22;22.90;;;9.90;99.90;;;;;;5059356;28;20075;-84
2022/03/30 02:36:36;;;;;;;43.22;23.80;;;9.80;99.90;;;;;;5053087;28;20482;-85
2022/03/30 02:39:03;;;;;;;50.90;23.65;;;9.70;99.90;;;;;;5054082;28;20504;-84
2022/03/30 02:41:29;;;;;;;46.05;22.98;;;9.60;99.90;;;;;;5053628;28;20096;-85
2022/03/30 02:43:55;;;;;;;47.00;22.95;;;9.50;99.90;;;;;;5054412;28;20037;-83
2022/03/30 02:46:21;;;;;;;52.53;26.15;;;9.50;99.90;;;;;;5054710;28;20033;-85
2022/03/30 02:48:47;;;;;;;59.70;26.02;;;9.70;99.90;;;;;;5056338;28;20032;-78
2022/03/30 02:51:13;;;;;;;64.70;27.70;;;9.80;99.90;;;;;;5054651;28;20033;-84
2022/03/30 02:53:39;;;;;;;63.05;27.88;;;9.80;99.90;;;;;;5054916;28;20025;-85
2022/03/30 02:56:05;;;;;;;47.15;22.58;;;9.70;99.90;;;;;;5053472;28;20021;-84
2022/03/30 02:58:31;;;;;;;43.50;21.83;;;9.70;99.90;;;;;;5053391;28;20477;-85
2022/03/30 03:00:58;;;;;;;44.95;21.33;;;9.40;99.90;;;;;;5055499;28;20024;-85
2022/03/30 03:03:24;;;;;;;53.03;23.15;;;9.30;99.90;;;;;;5043731;28;20037;-85
2022/03/30 03:05:50;;;;;;;47.28;21.98;;;9.40;99.90;;;;;;5039594;28;20036;-85
2022/03/30 03:08:16;;;;;;;49.97;22.88;;;9.30;99.90;;;;;;5036565;28;20048;-85
2022/03/30 03:10:45;;;;;;;60.25;23.23;;;9.40;99.90;;;;;;5017375;28;20394;-85
2022/03/30 03:13:11;;;;;;;47.28;20.58;;;9.30;99.90;;;;;;5034135;28;20091;-84
2022/03/30 03:15:38;;;;;;;47.22;22.27;;;9.40;99.90;;;;;;5033982;28;20037;-84
2022/03/30 03:18:05;;;;;;;54.58;22.83;;;9.30;99.90;;;;;;5033894;28;20553;-84
2022/03/30 03:20:32;;;;;;;52.67;22.20;;;9.40;99.90;;;;;;5034126;28;20049;-84
2022/03/30 03:22:58;;;;;;;45.38;22.70;;;9.30;99.90;;;;;;5032169;28;20087;-84
2022/03/30 03:25:27;;;;;;;46.65;23.70;;;9.30;99.90;;;;;;5033501;28;20112;-84
2022/03/30 03:27:53;;;;;;;51.25;24.45;;;9.30;99.90;;;;;;5032955;28;20045;-84
2022/03/30 03:30:20;;;;;;;49.28;23.63;;;9.40;99.90;;;;;;5031725;28;20026;-85
2022/03/30 03:32:46;;;;;;;52.90;21.80;;;9.30;99.90;;;;;;5032271;28;20029;-79
2022/03/30 03:35:13;;;;;;;52.97;23.85;;;9.20;99.90;;;;;;5033245;28;20389;-84
2022/03/30 03:37:40;;;;;;;50.63;23.42;;;9.20;99.90;;;;;;5033638;28;20048;-85
2022/03/30 03:40:08;;;;;;;54.65;24.67;;;9.10;99.90;;;;;;5033927;28;20474;-84
2022/03/30 03:42:35;;;;;;;53.45;25.48;;;9.20;99.90;;;;;;5033627;28;20402;-81
2022/03/30 03:45:01;;;;;;;64.63;27.02;;;9.40;99.90;;;;;;5033340;28;20819;-85
2022/03/30 03:47:27;;;;;;;50.65;23.10;;;9.40;99.90;;;;;;5044299;28;20033;-85
2022/03/30 03:49:52;;;;;;;48.88;22.60;;;9.30;99.90;;;;;;5057442;28;20027;-84
2022/03/30 03:52:18;;;;;;;63.25;25.25;;;9.40;99.90;;;;;;5057323;28;20466;-85
2022/03/30 03:54:44;;;;;;;52.72;24.55;;;9.30;99.90;;;;;;5056961;28;20095;-82
2022/03/30 03:57:10;;;;;;;48.13;23.00;;;9.40;99.90;;;;;;5057618;28;20397;-80
2022/03/30 03:59:37;;;;;;;52.53;22.30;;;9.30;99.90;;;;;;5057518;28;20017;-84
2022/03/30 04:02:04;;;;;;;51.17;23.17;;;9.20;99.90;;;;;;5060012;28;20111;-85
2022/03/30 04:04:31;;;;;;;55.75;24.98;;;9.00;99.90;;;;;;5057707;28;20028;-84
2022/03/30 04:06:56;;;;;;;56.65;23.65;;;9.00;99.90;;;;;;5058465;28;20478;-85
2022/03/30 04:09:22;;;;;;;48.80;25.58;;;9.00;99.90;;;;;;5059449;28;20096;-85
2022/03/30 04:11:48;;;;;;;44.17;23.05;;;9.10;99.90;;;;;;5059481;28;20090;-85
2022/03/30 04:14:17;;;;;;;47.90;22.00;;;9.00;99.90;;;;;;5058015;28;20424;-84
2022/03/30 04:16:43;;;;;;;59.70;26.85;;;8.90;99.90;;;;;;5058604;28;20110;-84
2022/03/30 04:19:09;;;;;;;49.97;24.77;;;8.90;99.90;;;;;;5058630;28;20084;-85
2022/03/30 04:21:35;;;;;;;53.75;25.00;;;9.20;99.90;;;;;;5058492;28;20401;-85
2022/03/30 04:24:02;;;;;;;52.88;24.05;;;9.30;99.90;;;;;;5058272;28;20098;-85
2022/03/30 04:26:28;;;;;;;50.03;24.05;;;9.10;99.90;;;;;;5059748;28;20033;-84
2022/03/30 04:28:53;;;;;;;57.53;24.35;;;9.20;99.90;;;;;;5060299;28;20371;-86
2022/03/30 04:31:19;;;;;;;51.55;23.25;;;9.20;99.90;;;;;;5059244;28;20056;-84
2022/03/30 04:33:45;;;;;;;48.30;22.10;;;9.10;99.90;;;;;;5057121;28;20385;-85
2022/03/30 04:36:11;;;;;;;43.53;23.83;;;9.20;99.90;;;;;;5056562;28;20033;-85
2022/03/30 04:38:37;;;;;;;58.10;23.48;;;9.20;99.90;;;;;;5054814;28;20058;-84
2022/03/30 04:41:03;;;;;;;41.22;23.55;;;9.00;99.90;;;;;;5056212;28;20061;-85
2022/03/30 04:43:31;;;;;;;60.13;24.52;;;9.00;99.90;;;;;;5056592;28;20049;-84
2022/03/30 04:45:57;;;;;;;50.55;23.02;;;8.90;99.90;;;;;;5056019;28;20025;-85
2022/03/30 04:48:23;;;;;;;53.03;25.40;;;8.90;99.90;;;;;;5054734;28;20127;-84
2022/03/30 04:50:52;;;;;;;53.92;23.75;;;8.80;99.90;;;;;;5056514;28;20047;-84
2022/03/30 04:53:18;;;;;;;59.47;23.20;;;8.70;99.90;;;;;;5055536;28;20091;-85
2022/03/30 04:55:43;;;;;;;45.28;23.80;;;8.70;99.90;;;;;;5056274;28;20032;-85
2022/03/30 04:58:09;;;;;;;53.30;22.58;;;8.70;99.90;;;;;;5055958;28;20044;-85
2022/03/30 05:00:36;;;;;;;61.38;25.15;;;8.70;99.90;;;;;;5055445;28;20025;-85
2022/03/30 05:03:03;;;;;;;58.55;27.20;;;8.70;99.90;;;;;;5044446;28;20025;-85
2022/03/30 05:05:29;;;;;;;59.88;25.08;;;8.90;99.90;;;;;;5035284;28;20026;-85
2022/03/30 05:07:57;;;;;;;50.17;22.88;;;8.90;99.90;;;;;;5039417;28;20120;-84
2022/03/30 05:10:24;;;;;;;54.20;24.40;;;8.80;99.90;;;;;;5055345;28;20044;-82
2022/03/30 05:12:50;;;;;;;54.42;23.92;;;8.80;99.90;;;;;;5055313;28;20029;-85
2022/03/30 05:15:16;;;;;;;55.13;23.98;;;8.70;99.90;;;;;;5055530;28;20114;-85
2022/03/30 05:17:46;;;;;;;64.80;27.40;;;8.80;99.90;;;;;;5059198;28;20033;-84
2022/03/30 05:20:13;;;;;;;72.65;29.63;;;8.90;99.90;;;;;;5057999;28;20029;-85
2022/03/30 05:22:41;;;;;;;79.18;32.47;;;9.10;99.90;;;;;;5059389;28;20025;-86
2022/03/30 05:25:08;;;;;;;70.95;32.80;;;9.10;99.90;;;;;;5059087;28;20473;-85
2022/03/30 05:27:34;;;;;;;81.30;32.13;;;9.10;99.90;;;;;;5054839;28;20108;-85
2022/03/30 05:30:02;;;;;;;76.03;31.05;;;9.20;99.90;;;;;;5054950;28;20108;-84
2022/03/30 05:32:29;;;;;;;56.53;25.27;;;9.20;99.90;;;;;;5054921;28;20083;-85
2022/03/30 05:34:54;;;;;;;50.70;23.33;;;9.30;99.90;;;;;;5054771;28;20116;-84
2022/03/30 05:37:21;;;;;;;70.43;24.90;;;9.20;99.90;;;;;;5055024;28;20124;-86
2022/03/30 05:39:47;;;;;;;62.53;27.60;;;9.20;99.90;;;;;;5055832;28;20029;-84
2022/03/30 05:42:14;;;;;;;68.80;27.02;;;9.30;99.90;;;;;;5055307;28;20116;-85
2022/03/30 05:44:41;;;;;;;53.13;24.00;;;9.10;99.90;;;;;;5057661;28;20024;-86
2022/03/30 05:47:08;;;;;;;68.82;25.20;;;9.00;99.90;;;;;;5057420;28;20493;-85
2022/03/30 05:49:35;;;;;;;55.55;23.02;;;8.80;99.90;;;;;;5057002;28;20032;-86
2022/03/30 05:52:02;;;;;;;67.43;25.25;;;8.50;99.90;;;;;;5055392;28;20067;-84
2022/03/30 05:54:28;;;;;;;52.40;25.10;;;8.50;99.90;;;;;;5055487;28;20064;-84
2022/03/30 05:57:00;;;;;;;45.25;23.60;;;8.60;99.90;;;;;;5057485;28;20126;-79
2022/03/30 05:59:40;;;;;;;46.55;23.25;;;8.60;99.90;;;;;;5057977;28;20033;-87
2022/03/30 06:02:09;;;;;;;57.50;25.23;;;8.60;99.90;;;;;;5050462;28;20068;-82
2022/03/30 06:04:36;;;;;;;60.15;25.92;;;8.70;99.90;;;;;;5034097;28;20482;-83
2022/03/30 06:07:03;;;;;;;59.00;25.13;;;8.80;99.90;;;;;;5034133;28;20080;-81
2022/03/30 06:09:29;;;;;;;72.90;30.00;;;8.90;99.90;;;;;;5033517;28;20037;-83
2022/03/30 06:11:55;;;;;;;69.35;29.13;;;8.90;99.90;;;;;;5033745;28;20041;-82
2022/03/30 06:14:21;;;;;;;70.00;29.27;;;9.20;99.90;;;;;;5042932;28;20040;-76
2022/03/30 06:16:47;;;;;;;75.85;28.45;;;9.30;99.90;;;;;;5051921;28;20039;-80
2022/03/30 06:19:14;;;;;;;57.72;25.88;;;9.20;99.90;;;;;;5052483;28;20035;-78
2022/03/30 06:21:42;;;;;;;51.45;23.98;;;9.40;99.90;;;;;;5052788;28;20063;-74
2022/03/30 06:24:12;;;;;;;61.47;25.50;;;9.60;99.90;;;;;;5034350;28;20021;-80
2022/03/30 06:26:39;;;;;;;65.47;24.90;;;9.30;99.90;;;;;;5035702;28;20029;-80
2022/03/30 06:29:06;;;;;;;50.47;23.88;;;9.40;99.90;;;;;;5073299;28;20779;-80
2022/03/30 06:31:32;;;;;;;46.85;22.88;;;9.30;99.90;;;;;;5051319;28;20025;-78
2022/03/30 06:33:58;;;;;;;66.20;26.10;;;9.40;99.90;;;;;;5033094;28;20679;-78
2022/03/30 06:36:24;;;;;;;57.38;23.02;;;9.50;99.90;;;;;;5033205;28;20124;-78
2022/03/30 06:38:50;;;;;;;58.55;23.98;;;9.50;99.90;;;;;;5032440;28;20902;-79
2022/03/30 06:41:19;;;;;;;64.55;27.67;;;9.50;99.90;;;;;;5033177;28;20037;-78
2022/03/30 06:43:47;;;;;;;57.83;25.35;;;9.40;99.90;;;;;;5038138;28;20029;-82
2022/03/30 06:46:14;;;;;;;66.10;26.38;;;9.40;99.90;;;;;;5052966;28;20021;-83
2022/03/30 06:48:40;;;;;;;50.80;24.92;;;9.30;99.90;;;;;;5051259;28;20496;-80
2022/03/30 06:51:06;;;;;;;55.58;25.10;;;9.60;99.90;;;;;;5052668;28;20036;-77
2022/03/30 06:53:32;;;;;;;51.03;22.80;;;9.70;99.90;;;;;;5052190;28;20025;-75
2022/03/30 06:55:57;;;;;;;57.40;24.00;;;9.80;99.90;;;;;;5052595;28;20033;-79
2022/03/30 06:58:23;;;;;;;66.28;25.10;;;10.00;99.90;;;;;;5052440;28;20497;-79
2022/03/30 07:00:50;;;;;;;56.30;23.55;;;10.10;99.90;;;;;;5052705;28;20032;-80
2022/03/30 07:03:16;;;;;;;56.10;23.80;;;9.90;99.90;;;;;;5038770;28;20524;-81
2022/03/30 07:05:42;;;;;;;47.03;22.85;;;9.60;99.90;;;;;;5031283;28;20033;-80
2022/03/30 07:10:52;;;;;;;51.95;20.75;;;9.60;99.90;;;;;;5032535;28;20410;-80
2022/03/30 07:13:19;;;;;;;53.88;21.95;;;9.20;99.90;;;;;;5034082;28;20044;-80
2022/03/30 07:15:45;;;;;;;51.28;21.48;;;9.30;99.90;;;;;;5052323;28;20452;-80
2022/03/30 07:18:13;;;;;;;45.90;21.70;;;9.30;99.90;;;;;;5052367;28;20052;-80
2022/03/30 07:20:39;;;;;;;50.80;23.15;;;9.30;99.90;;;;;;5051097;28;20055;-80
2022/03/30 07:23:05;;;;;;;54.80;21.88;;;9.40;99.90;;;;;;5051313;28;20037;-80
2022/03/30 07:25:31;;;;;;;47.67;21.38;;;9.40;99.90;;;;;;5052364;28;20031;-80
2022/03/30 07:27:58;;;;;;;55.17;22.05;;;9.80;99.90;;;;;;5051016;28;20529;-80
2022/03/30 07:30:25;;;;;;;50.80;22.70;;;9.90;99.90;;;;;;5051234;28;20037;-78
2022/03/30 07:32:53;;;;;;;65.03;23.92;;;10.10;99.90;;;;;;5045223;28;20032;-79
2022/03/30 07:35:21;;;;;;;50.47;21.50;;;10.30;99.90;;;;;;5052291;28;20021;-79
2022/03/30 07:37:47;;;;;;;54.67;21.65;;;10.30;99.90;;;;;;5052159;28;20048;-80
2022/03/30 07:40:16;;;;;;;59.67;21.88;;;10.00;99.90;;;;;;5046415;28;20100;-79
2022/03/30 07:42:43;;;;;;;50.22;22.10;;;10.00;99.90;;;;;;5031333;28;20439;-81
2022/03/30 07:45:10;;;;;;;61.17;23.90;;;10.30;99.90;;;;;;5032068;28;20067;-78
2022/03/30 07:47:36;;;;;;;43.13;20.77;;;9.80;99.90;;;;;;5042992;28;20106;-81
2022/03/30 07:50:04;;;;;;;54.35;22.77;;;10.20;99.90;;;;;;5052316;28;20036;-81
2022/03/30 07:52:29;;;;;;;47.95;21.98;;;10.50;99.90;;;;;;5052154;28;20033;-81
2022/03/30 07:54:55;;;;;;;49.58;21.05;;;10.60;99.90;;;;;;5052796;28;20025;-81
2022/03/30 07:57:29;;;;;;;49.08;22.17;;;10.40;99.90;;;;;;5052485;28;20477;-81
2022/03/30 07:59:56;;;;;;;36.38;19.25;;;10.70;99.90;;;;;;5052204;28;20110;-81
2022/03/30 08:02:23;;;;;;;41.72;19.02;;;10.80;99.90;;;;;;5038813;28;20444;-81
2022/03/30 08:04:49;;;;;;;44.28;19.90;;;10.80;99.90;;;;;;5032160;28;20029;-81
2022/03/30 08:07:15;;;;;;;37.53;19.08;;;10.80;99.90;;;;;;5032117;28;20108;-81
2022/03/30 08:09:42;;;;;;;43.83;21.98;;;10.80;99.90;;;;;;5032273;28;20538;-81
2022/03/30 08:12:14;;;;;;;43.22;18.50;;;10.60;99.90;;;;;;5032302;28;20032;-82
2022/03/30 08:14:44;;;;;;;35.72;16.83;;;10.60;99.90;;;;;;5032129;28;20040;-82
2022/03/30 08:17:10;;;;;;;32.97;18.55;;;10.80;99.90;;;;;;5030527;28;20052;-82
2022/03/30 08:19:37;;;;;;;44.75;20.13;;;11.10;99.90;;;;;;5031914;28;20355;-82
2022/03/30 08:24:47;;;;;;;38.47;19.50;;;10.90;99.90;;;;;;5035396;28;20080;-80
2022/03/30 08:27:17;;;;;;;35.63;17.35;;;11.10;99.90;;;;;;5040096;28;20030;-80
2022/03/30 08:29:44;;;;;;;34.05;17.45;;;11.30;99.90;;;;;;5030211;28;20034;-82
2022/03/30 08:32:11;;;;;;;42.38;18.17;;;11.70;99.80;;;;;;5044602;28;20017;-81
2022/03/30 08:34:38;;;;;;;33.60;18.00;;;12.00;99.00;;;;;;5052929;28;20493;-79
2022/03/30 08:37:04;;;;;;;37.38;16.77;;;11.60;99.20;;;;;;5054272;28;20045;-81
2022/03/30 08:39:31;;;;;;;28.88;17.23;;;11.70;99.50;;;;;;5054219;28;20091;-79
2022/03/30 08:41:57;;;;;;;37.25;17.52;;;12.10;99.10;;;;;;5055381;28;20074;-79
2022/03/30 08:44:22;;;;;;;31.35;16.27;;;12.10;98.80;;;;;;5050479;28;20055;-80
2022/03/30 08:46:49;;;;;;;50.78;17.92;;;12.10;98.60;;;;;;5039208;28;20020;-81
2022/03/30 08:49:16;;;;;;;36.35;17.60;;;12.00;98.60;;;;;;5054925;28;20089;-81
2022/03/30 08:51:47;;;;;;;31.35;16.67;;;12.30;98.50;;;;;;5053967;28;20366;-78
2022/03/30 08:54:14;;;;;;;33.35;18.25;;;12.20;98.70;;;;;;5055308;28;20025;-78
2022/03/30 08:56:40;;;;;;;28.58;16.33;;;12.50;98.00;;;;;;5054987;28;20119;-81
2022/03/30 08:59:08;;;;;;;30.60;16.98;;;12.40;98.00;;;;;;5054231;28;20029;-78
2022/03/30 09:01:36;;;;;;;29.95;17.50;;;12.80;97.50;;;;;;5041261;28;20155;-80
2022/03/30 09:04:05;;;;;;;25.95;15.35;;;13.10;97.30;;;;;;5053436;28;20017;-81
2022/03/30 09:06:41;;;;;;;33.25;16.55;;;13.10;96.30;;;;;;5054067;28;20120;-83
2022/03/30 09:09:08;;;;;;;30.52;17.00;;;13.20;95.90;;;;;;5055368;28;20132;-82
2022/03/30 09:11:42;;;;;;;37.20;16.60;;;13.10;96.10;;;;;;5055464;28;20082;-82
2022/03/30 09:14:10;;;;;;;28.25;16.92;;;13.10;96.10;;;;;;5053887;28;20040;-78
2022/03/30 09:16:44;;;;;;;32.47;16.75;;;13.00;96.20;;;;;;5055164;28;20029;-83
2022/03/30 09:19:12;;;;;;;32.88;17.13;;;12.90;96.40;;;;;;5054009;28;20025;-81
2022/03/30 09:22:05;;;;;;;33.33;15.60;;;13.10;96.00;;;;;;5053744;28;20037;-80
2022/03/30 09:24:34;;;;;;;30.30;16.95;;;13.30;95.30;;;;;;5052749;28;20041;-80
2022/03/30 09:27:03;;;;;;;32.08;16.40;;;13.10;95.50;;;;;;5054389;28;20021;-80
2022/03/30 09:29:33;;;;;;;34.63;18.20;;;13.10;95.30;;;;;;5053320;28;20036;-80
2022/03/30 09:32:04;;;;;;;34.03;17.17;;;13.20;95.40;;;;;;5053734;28;20060;-81
2022/03/30 09:34:34;;;;;;;28.08;15.82;;;13.30;95.40;;;;;;5054454;28;20040;-81
2022/03/30 09:37:02;;;;;;;37.30;16.48;;;13.50;95.80;;;;;;5054247;28;20068;-79
2022/03/30 09:39:35;;;;;;;35.17;16.30;;;14.00;95.00;;;;;;5051355;28;20033;-81
2022/03/30 09:42:04;;;;;;;34.22;16.30;;;14.10;94.70;;;;;;5053092;28;20059;-81
2022/03/30 09:44:31;;;;;;;32.35;16.75;;;14.00;94.60;;;;;;5053486;28;20014;-79
2022/03/30 09:47:06;;;;;;;31.00;16.27;;;14.30;94.00;;;;;;5053234;28;20033;-80
2022/03/30 09:49:33;;;;;;;35.22;16.00;;;14.50;94.10;;;;;;5033049;28;20035;-79
2022/03/30 09:51:59;;;;;;;32.08;17.20;;;14.90;94.10;;;;;;5033835;28;20529;-81
2022/03/30 09:54:43;;;;;;;28.58;17.10;;;15.20;92.80;;;;;;5034031;28;20029;-80
2022/03/30 09:57:15;;;;;;;32.10;17.70;;;14.90;93.20;;;;;;5046706;28;20127;-77
2022/03/30 10:00:04;;;;;;;36.28;15.38;;;14.60;93.40;;;;;;5053974;28;20043;-81
2022/03/30 10:02:36;;;;;;;30.33;15.98;;;13.70;94.30;;;;;;5053143;28;20021;-81
2022/03/30 10:05:04;;;;;;;34.53;17.15;;;13.50;94.80;;;;;;5052539;28;20032;-75
2022/03/30 10:07:29;;;;;;;34.88;17.30;;;13.80;94.50;;;;;;5044628;28;20120;-81
2022/03/30 10:09:57;;;;;;;33.35;16.90;;;13.70;94.60;;;;;;5052154;28;20549;-81
2022/03/30 10:12:24;;;;;;;28.38;15.82;;;14.20;94.30;;;;;;5038430;28;20014;-80
2022/03/30 10:14:50;;;;;;;30.25;16.38;;;13.80;94.50;;;;;;5031388;28;20033;-74
2022/03/30 10:17:18;;;;;;;37.05;16.90;;;13.80;95.30;;;;;;5036359;28;20029;-79
2022/03/30 10:19:44;;;;;;;32.17;14.90;;;13.90;94.10;;;;;;5051270;28;20034;-77
2022/03/30 10:22:36;;;;;;;30.08;16.30;;;13.90;94.30;;;;;;5033350;28;20116;-75
2022/03/30 10:25:32;;;;;;;29.05;15.50;;;13.50;94.50;;;;;;5034393;28;20099;-80
2022/03/30 10:28:14;;;;;;;31.05;15.85;;;13.70;94.60;;;;;;5033279;28;20449;-83
2022/03/30 10:30:43;;;;;;;35.00;16.00;;;13.60;94.40;;;;;;5033341;28;20029;-81
2022/03/30 10:33:10;;;;;;;28.25;16.30;;;13.70;94.30;;;;;;5033856;28;20482;-82
2022/03/30 10:35:43;;;;;;;29.17;17.25;;;13.70;95.20;;;;;;5032513;28;20029;-78
2022/03/30 10:38:09;;;;;;;28.50;17.15;;;14.20;94.60;;;;;;5032737;28;20057;-80
2022/03/30 10:40:36;;;;;;;28.52;15.27;;;14.40;93.80;;;;;;5033451;28;20025;-82
2022/03/30 10:43:10;;;;;;;29.10;15.30;;;14.70;93.60;;;;;;5033037;28;20037;-82
2022/03/30 10:46:02;;;;;;;30.33;15.15;;;15.30;93.10;;;;;;5033212;28;20021;-81
2022/03/30 10:48:34;;;;;;;32.15;17.45;;;15.10;92.80;;;;;;5050630;28;20404;-81
2022/03/30 10:51:00;;;;;;;29.63;15.05;;;15.40;93.10;;;;;;5053020;28;20377;-80
2022/03/30 10:53:31;;;;;;;28.77;16.42;;;15.40;92.10;;;;;;5051182;28;20104;-82
2022/03/30 10:56:24;;;;;;;26.75;15.15;;;15.90;92.40;;;;;;5051693;28;20044;-85
2022/03/30 10:58:53;;;;;;;30.05;15.93;;;15.90;90.90;;;;;;5048503;28;20095;-79
2022/03/30 11:01:27;;;;;;;29.10;16.20;;;16.60;90.00;;;;;;5052772;28;20504;-82
2022/03/30 11:04:05;;;;;;;28.30;15.88;;;15.80;90.80;;;;;;5052848;28;20083;-82
2022/03/30 11:06:40;;;;;;;25.35;14.68;;;16.00;91.00;;;;;;5053344;28;20025;-83
2022/03/30 11:09:20;;;;;;;28.38;15.18;;;16.90;90.00;;;;;;5052735;28;20065;-82
2022/03/30 11:11:57;;;;;;;26.83;15.73;;;16.70;90.40;;;;;;5053058;28;20071;-81
2022/03/30 11:14:28;;;;;;;25.65;15.75;;;16.40;89.40;;;;;;5052452;28;20033;-82
2022/03/30 11:16:57;;;;;;;29.05;16.13;;;15.70;91.20;;;;;;5051238;28;20436;-86
2022/03/30 11:19:33;;;;;;;28.33;15.70;;;16.40;91.20;;;;;;5037799;28;20026;-85
2022/03/30 11:22:11;;;;;;;37.38;16.25;;;16.70;89.80;;;;;;5032249;28;20026;-82
2022/03/30 11:24:58;;;;;;;34.47;15.48;;;16.60;91.60;;;;;;5033280;28;20028;-83
2022/03/30 11:27:23;;;;;;;28.50;15.18;;;16.50;90.60;;;;;;5044021;28;20037;-83
2022/03/30 11:29:54;;;;;;;28.15;16.88;;;16.50;90.60;;;;;;5032980;28;20021;-86
2022/03/30 11:32:26;;;;;;;28.70;16.75;;;15.90;90.70;;;;;;5033209;28;20445;-82
2022/03/30 11:34:54;;;;;;;29.73;16.40;;;15.70;91.10;;;;;;5030783;28;20025;-83
2022/03/30 11:37:31;;;;;;;31.23;16.60;;;16.10;90.70;;;;;;5032437;28;20041;-83
2022/03/30 11:40:10;;;;;;;26.10;14.60;;;16.00;90.50;;;;;;5032477;28;20045;-83
2022/03/30 11:42:57;;;;;;;19.70;14.20;;;16.00;90.80;;;;;;5032513;28;20116;-83
2022/03/30 11:45:26;;;;;;;28.67;15.63;;;16.10;91.30;;;;;;5032421;28;20038;-83
2022/03/30 11:48:04;;;;;;;29.67;16.55;;;16.10;90.40;;;;;;5044097;28;20079;-83
2022/03/30 11:50:40;;;;;;;25.70;14.93;;;16.50;90.40;;;;;;5052520;28;20057;-83
2022/03/30 11:53:09;;;;;;;29.67;16.10;;;16.70;89.60;;;;;;5051308;28;20021;-82
2022/03/30 11:55:51;;;;;;;38.85;16.85;;;16.60;89.60;;;;;;5052395;28;20032;-83
2022/03/30 11:58:34;;;;;;;;;;;16.60;90.10;;;;;;5052796;28;20112;-84
2022/03/30 12:01:08;;;;;;;26.50;14.80;;;16.60;90.10;;;;;;5052915;28;19909;-82
2022/03/30 12:03:35;;;;;;;33.03;14.63;;;16.50;89.40;;;;;;5036804;28;20478;-83
2022/03/30 12:06:03;;;;;;;26.58;15.13;;;16.50;89.50;;;;;;5032869;28;20049;-83
2022/03/30 12:08:41;;;;;;;31.27;15.63;;;16.70;88.60;;;;;;5034298;28;20072;-83
2022/03/30 12:11:07;;;;;;;31.15;14.30;;;17.50;88.10;;;;;;5036351;28;20071;-82
2022/03/30 12:13:33;;;;;;;37.17;14.25;;;17.70;86.10;;;;;;5036072;28;20049;-83
2022/03/30 12:16:08;;;;;;;31.00;14.93;;;16.60;85.80;;;;;;5036954;28;20167;-78
2022/03/30 12:18:51;;;;;;;23.98;14.57;;;16.30;87.50;;;;;;5036425;28;20041;-84
2022/03/30 12:21:22;;;;;;;28.98;14.15;;;16.40;88.10;;;;;;5036490;28;20026;-84
2022/03/30 12:23:51;;;;;;;31.43;14.00;;;17.10;86.90;;;;;;5036566;28;20423;-84
2022/03/30 12:26:17;;;;;;;29.02;15.55;;;17.60;88.00;;;;;;5035639;28;20038;-83
2022/03/30 12:28:43;;;;;;;32.45;14.50;;;17.80;85.30;;;;;;5036271;28;20026;-84
2022/03/30 12:31:10;;;;;;;35.40;15.25;;;17.70;85.50;;;;;;5035985;28;20030;-83
2022/03/30 12:33:47;;;;;;;31.80;16.05;;;17.10;86.00;;;;;;5035240;28;20040;-84
2022/03/30 12:36:18;;;;;;;33.72;15.43;;;17.50;84.90;;;;;;5036047;28;20033;-83
2022/03/30 12:38:49;;;;;;;29.70;15.38;;;17.20;84.30;;;;;;5036298;28;20390;-83
2022/03/30 12:41:27;;;;;;;22.15;13.63;;;17.20;85.80;;;;;;5035442;28;20048;-79
2022/03/30 12:44:01;;;;;;;24.30;15.13;;;16.90;83.10;;;;;;5034290;28;20367;-83
2022/03/30 12:46:32;;;;;;;27.13;14.18;;;17.30;84.00;;;;;;5036462;28;20072;-83